Terminal Aerodrome Forecast
Issued by NWS

Home | Current Version | Previous Version | Text Only | Print | Product List | Glossary On
Versions: 1 2 3 4 5 6 7 8 9 10 11 12 13
000
FTUS42 KILM 110541
TAFCRE
TAF
KCRE 110541Z 1106/1206 04004KT P6SM SKC
     FM111400 08005KT P6SM SCT050
     FM111700 10007KT P6SM SCT025 BKN050
     FM120300 16007KT 5SM BR VCSH BKN025 BKN050=

USA.gov is the U.S. government's official web portal to all federal, state and local government web resources and services.